createdAt,value
2023-04-08T00:01:23.203Z,17.50
2023-04-08T00:11:30.867Z,15.10
2023-04-08T00:21:38.171Z,13.40
2023-04-08T00:31:45.166Z,14.40
2023-04-08T00:41:52.183Z,21.50
2023-04-08T00:52:00.649Z,16.30
2023-04-08T01:02:08.478Z,16.70
2023-04-08T01:12:17.692Z,16.80
2023-04-08T01:22:25.010Z,19.70
2023-04-08T01:32:32.626Z,17.30
2023-04-08T01:42:40.982Z,13.50
2023-04-08T01:52:47.460Z,15.20
2023-04-08T02:02:56.765Z,17.10
2023-04-08T02:13:03.652Z,18.60
2023-04-08T02:23:14.982Z,14.40
2023-04-08T02:33:22.356Z,14.90
2023-04-08T02:43:28.672Z,13.90
2023-04-08T02:53:35.834Z,13.30
2023-04-08T03:03:42.994Z,13.20
2023-04-08T03:13:50.810Z,17.20
2023-04-08T03:23:57.979Z,15.40
2023-04-08T03:34:05.072Z,13.30
2023-04-08T03:44:12.055Z,12.40
2023-04-08T03:54:19.108Z,10.80
2023-04-08T04:04:26.868Z,15.30
2023-04-08T04:14:34.034Z,13.70
2023-04-08T04:24:41.253Z,12.20
2023-04-08T04:34:48.291Z,15.10
2023-04-08T04:44:56.207Z,13.60
2023-04-08T04:55:03.630Z,19.50
2023-04-08T05:05:11.805Z,15.00
2023-04-08T05:15:19.424Z,13.60
2023-04-08T05:25:26.451Z,15.40
2023-04-08T05:35:33.558Z,16.80
2023-04-08T05:45:40.941Z,13.60
2023-04-08T05:55:48.067Z,12.60
2023-04-08T06:05:55.036Z,14.20
2023-04-08T06:16:11.050Z,16.30
2023-04-08T06:26:18.292Z,11.20
2023-04-08T06:36:25.699Z,9.90
2023-04-08T06:46:32.732Z,12.70
2023-04-08T06:56:40.056Z,11.20
2023-04-08T07:06:47.334Z,9.00
2023-04-08T07:16:54.577Z,13.00
2023-04-08T07:27:02.359Z,10.70
2023-04-08T07:37:09.377Z,10.50
2023-04-08T07:47:16.874Z,17.10
2023-04-08T07:57:23.997Z,11.20
2023-04-08T08:07:30.740Z,12.50
2023-04-08T08:17:37.983Z,13.50
2023-04-08T08:27:45.572Z,12.70
2023-04-08T08:37:52.604Z,11.80
2023-04-08T08:58:05.640Z,14.60
2023-04-08T09:08:24.298Z,14.90
2023-04-08T09:18:31.859Z,12.60
2023-04-08T09:28:40.082Z,13.20
2023-04-08T09:38:45.238Z,12.50
2023-04-08T09:49:03.010Z,13.50
2023-04-08T09:59:10.068Z,13.30
2023-04-08T10:09:17.113Z,13.80
2023-04-08T10:19:40.842Z,14.50
2023-04-08T10:39:57.057Z,13.90
2023-04-08T10:50:13.435Z,15.90
2023-04-08T11:00:22.038Z,14.80
2023-04-08T11:10:30.067Z,14.20
2023-04-08T11:20:38.494Z,15.10
2023-04-08T11:30:46.021Z,14.10
2023-04-08T11:40:55.064Z,13.90
2023-04-08T12:01:11.922Z,14.90
2023-04-08T12:11:20.328Z,17.10
2023-04-08T12:21:27.514Z,15.90
2023-04-08T12:31:34.898Z,15.80
2023-04-08T12:41:42.079Z,15.80
2023-04-08T12:51:49.489Z,13.80
2023-04-08T13:01:57.194Z,16.50
2023-04-08T13:12:03.702Z,15.90
2023-04-08T13:22:10.852Z,16.40
2023-04-08T13:32:18.099Z,17.30
2023-04-08T13:42:25.810Z,17.20
2023-04-08T13:52:32.995Z,18.90
2023-04-08T14:02:40.733Z,18.50
2023-04-08T14:12:48.285Z,16.00
2023-04-08T14:22:56.845Z,16.70
2023-04-08T14:33:04.200Z,17.70
2023-04-08T14:43:11.263Z,20.10
2023-04-08T14:53:18.575Z,14.60
2023-04-08T15:03:26.047Z,17.10
2023-04-08T15:13:33.956Z,27.40
2023-04-08T15:23:39.680Z,16.30
2023-04-08T15:33:48.354Z,9.60
2023-04-08T15:43:54.575Z,16.00
2023-04-08T15:54:01.774Z,14.70
2023-04-08T16:04:09.516Z,13.60
2023-04-08T16:14:18.023Z,24.50
2023-04-08T16:24:25.333Z,34.20
2023-04-08T16:34:33.265Z,37.00
2023-04-08T16:44:40.965Z,22.10
2023-04-08T16:54:48.492Z,22.10
2023-04-08T17:04:55.763Z,27.20
2023-04-08T17:15:02.977Z,28.00
2023-04-08T17:25:12.388Z,35.50
2023-04-08T17:35:18.523Z,47.20
2023-04-08T17:45:24.682Z,47.00
2023-04-08T17:55:31.076Z,41.70
2023-04-08T18:05:38.089Z,58.40
2023-04-08T18:15:43.987Z,57.10
2023-04-08T18:25:51.088Z,88.00
2023-04-08T18:35:59.729Z,80.80
2023-04-08T18:46:07.233Z,85.00
2023-04-08T18:56:15.093Z,74.80
2023-04-08T19:06:22.841Z,78.80
2023-04-08T19:16:29.197Z,88.10
2023-04-08T19:26:33.968Z,86.60
2023-04-08T19:36:40.983Z,80.60
2023-04-08T19:46:48.421Z,72.40
2023-04-08T19:56:58.186Z,49.50
2023-04-08T20:07:05.082Z,50.20
2023-04-08T20:17:11.465Z,55.20
2023-04-08T20:27:19.063Z,50.40
2023-04-08T20:37:24.972Z,44.70
2023-04-08T20:47:33.696Z,36.60
2023-04-08T20:57:40.853Z,34.80
2023-04-08T21:07:47.899Z,35.80
2023-04-08T21:17:55.083Z,41.90
2023-04-08T21:28:02.153Z,41.60
2023-04-08T21:38:09.440Z,36.80
2023-04-08T21:48:16.565Z,40.60
2023-04-08T21:58:23.535Z,36.40
2023-04-08T22:08:32.578Z,36.60
2023-04-08T22:18:40.925Z,34.50
2023-04-08T22:28:48.146Z,41.50
2023-04-08T22:38:55.325Z,51.90
2023-04-08T22:49:02.276Z,59.40
2023-04-08T22:59:09.243Z,58.20
2023-04-08T23:09:16.223Z,50.30
2023-04-08T23:19:22.780Z,49.10
2023-04-08T23:29:30.144Z,49.90
2023-04-08T23:39:36.658Z,55.10
2023-04-08T23:49:41.195Z,53.90
2023-04-08T23:59:48.377Z,47.60
